createdAt,value
2023-07-04T00:02:43.697Z,99804.56
2023-07-04T00:07:45.233Z,99817.25
2023-07-04T00:12:47.564Z,99814.47
2023-07-04T00:17:49.036Z,99816.78
2023-07-04T00:22:50.490Z,99820.97
2023-07-04T00:27:52.366Z,99822.97
2023-07-04T00:32:53.729Z,99795.66
2023-07-04T00:37:57.528Z,99821.56
2023-07-04T00:43:04.428Z,99821.09
2023-07-04T00:48:06.863Z,99819.34
2023-07-04T00:53:11.730Z,99814.69
2023-07-04T00:58:13.551Z,99833.44
2023-07-04T01:03:22.546Z,99833.91
2023-07-04T01:08:30.598Z,99833.19
2023-07-04T01:13:37.691Z,99846.47
2023-07-04T01:18:42.691Z,99841.72
2023-07-04T01:24:02.817Z,99847.25
2023-07-04T01:29:07.092Z,99855.34
2023-07-04T01:34:09.543Z,99856.13
2023-07-04T01:39:16.258Z,99853.50
2023-07-04T01:44:18.357Z,99832.16
2023-07-04T01:49:20.476Z,99863.19
2023-07-04T01:54:21.857Z,99867.13
2023-07-04T01:59:23.679Z,99872.16
2023-07-04T02:04:25.015Z,99854.13
2023-07-04T02:09:26.473Z,99878.31
2023-07-04T02:14:27.873Z,99856.25
2023-07-04T02:19:29.211Z,99878.13
2023-07-04T02:24:30.536Z,99880.16
2023-07-04T02:29:31.949Z,99883.69
2023-07-04T02:34:33.425Z,99901.19
2023-07-04T02:39:35.044Z,99890.72
2023-07-04T02:44:36.783Z,99890.28
2023-07-04T02:49:39.214Z,99884.81
2023-07-04T02:54:40.627Z,99887.13
2023-07-04T02:59:42.468Z,99892.16
2023-07-04T03:04:44.833Z,99888.41
2023-07-04T03:09:46.419Z,99881.81
2023-07-04T03:14:47.911Z,99888.53
2023-07-04T03:19:49.710Z,99888.69
2023-07-04T03:24:51.019Z,99905.31
2023-07-04T03:29:52.438Z,99897.41
2023-07-04T03:34:53.827Z,99901.63
2023-07-04T03:39:57.076Z,99879.66
2023-07-04T03:44:58.412Z,99891.75
2023-07-04T03:49:59.928Z,99910.63
2023-07-04T03:55:01.813Z,99920.28
2023-07-04T04:00:06.954Z,99903.34
2023-07-04T04:05:08.553Z,99926.31
2023-07-04T04:10:10.237Z,99917.50
2023-07-04T04:15:12.747Z,99923.47
2023-07-04T04:20:14.544Z,99929.13
2023-07-04T04:25:17.825Z,99935.16
2023-07-04T04:30:19.993Z,99927.69
2023-07-04T04:35:22.579Z,99939.13
2023-07-04T04:40:24.624Z,99938.34
2023-07-04T04:45:26.043Z,99951.75
2023-07-04T04:50:33.890Z,99962.50
2023-07-04T04:55:36.644Z,99949.13
2023-07-04T05:00:38.108Z,99968.03
2023-07-04T05:05:40.218Z,99961.09
2023-07-04T05:10:41.584Z,99969.00
2023-07-04T05:15:42.971Z,99947.69
2023-07-04T05:20:44.331Z,99963.25
2023-07-04T05:25:45.710Z,99961.38
2023-07-04T05:30:47.024Z,99952.28
2023-07-04T05:35:48.994Z,99969.22
2023-07-04T05:40:50.648Z,99967.66
2023-07-04T05:45:53.793Z,99967.28
2023-07-04T05:51:00.772Z,99958.00
2023-07-04T05:56:12.303Z,99974.16
2023-07-04T06:01:15.853Z,99976.91
2023-07-04T06:06:23.168Z,99981.28
2023-07-04T06:11:27.715Z,99971.78
2023-07-04T06:16:29.557Z,99975.16
2023-07-04T06:21:42.935Z,99995.50
2023-07-04T06:26:46.054Z,99995.84
2023-07-04T06:31:49.776Z,99982.19
2023-07-04T06:36:51.242Z,99997.00
2023-07-04T06:41:52.637Z,99997.00
2023-07-04T06:46:54.266Z,99991.13
2023-07-04T06:51:55.828Z,100010.56
2023-07-04T06:56:57.940Z,100008.50
2023-07-04T07:01:59.725Z,100008.63
2023-07-04T07:07:01.240Z,100022.91
2023-07-04T07:12:02.892Z,100026.94
2023-07-04T07:17:05.952Z,100018.34
2023-07-04T07:22:07.521Z,100018.88
2023-07-04T07:27:08.970Z,100010.13
2023-07-04T07:32:10.702Z,100033.69
2023-07-04T07:37:13.594Z,100036.00
2023-07-04T07:42:15.352Z,100028.94
2023-07-04T07:47:16.838Z,100026.03
2023-07-04T07:52:18.307Z,100025.06
2023-07-04T07:57:20.125Z,100020.06
2023-07-04T08:02:21.514Z,100021.81
2023-07-04T08:07:23.053Z,100021.63
2023-07-04T08:12:24.437Z,100024.72
2023-07-04T08:17:26.005Z,100014.75
2023-07-04T08:22:27.438Z,100023.41
2023-07-04T08:27:28.836Z,100017.50
2023-07-04T08:32:30.718Z,100015.34
2023-07-04T08:37:32.138Z,100021.81
2023-07-04T08:42:37.060Z,100008.78
2023-07-04T08:47:40.284Z,99983.56
2023-07-04T08:53:04.680Z,100028.91
2023-07-04T08:58:06.126Z,100018.75
2023-07-04T09:03:20.459Z,100021.72
2023-07-04T09:08:41.865Z,100029.88
2023-07-04T09:13:51.004Z,100012.81
2023-07-04T09:19:09.988Z,100020.38
2023-07-04T09:24:12.057Z,100029.19
2023-07-04T09:29:16.835Z,100018.56
2023-07-04T09:34:29.659Z,100001.66
2023-07-04T09:44:55.030Z,100005.59
2023-07-04T09:50:13.292Z,100006.00
2023-07-04T09:55:27.021Z,100019.59
2023-07-04T10:00:28.996Z,99998.69
2023-07-04T10:05:33.576Z,100007.91
2023-07-04T10:10:51.913Z,99988.22
2023-07-04T10:15:53.571Z,99996.94
2023-07-04T10:20:56.835Z,99992.31
2023-07-04T10:26:01.506Z,99979.72
2023-07-04T10:31:09.925Z,99982.56
2023-07-04T10:36:17.257Z,99985.84
2023-07-04T10:41:24.970Z,99968.38
2023-07-04T10:46:31.808Z,99991.50
2023-07-04T10:51:39.641Z,99969.22
2023-07-04T10:56:45.045Z,99965.63
2023-07-04T11:01:55.638Z,99969.56
2023-07-04T11:07:01.077Z,99957.41
2023-07-04T11:12:06.021Z,99968.66
2023-07-04T11:17:11.704Z,99969.75
2023-07-04T11:22:17.352Z,99957.50
2023-07-04T11:27:23.792Z,99959.31
2023-07-04T11:32:27.462Z,99954.19
2023-07-04T11:37:38.642Z,99955.59
2023-07-04T11:42:47.348Z,99952.50
2023-07-04T11:47:52.678Z,99931.56
2023-07-04T11:52:57.926Z,99931.13
2023-07-04T11:58:08.616Z,99935.72
2023-07-04T12:03:19.785Z,99923.47
2023-07-04T12:08:39.972Z,99919.44
2023-07-04T12:13:43.286Z,99926.69
2023-07-04T12:18:45.795Z,99902.63
2023-07-04T12:23:47.822Z,99904.88
2023-07-04T12:28:49.617Z,99912.84
2023-07-04T12:33:53.164Z,99909.19
2023-07-04T12:38:56.952Z,99898.97
2023-07-04T12:54:16.278Z,99890.78
2023-07-04T12:59:30.729Z,99896.25
2023-07-04T13:04:33.891Z,99874.88
2023-07-04T13:09:35.327Z,99864.19
2023-07-04T13:14:36.667Z,99869.66
2023-07-04T13:19:44.315Z,99872.00
2023-07-04T13:35:28.623Z,99823.91
2023-07-04T13:40:31.072Z,99851.56
2023-07-04T13:45:32.609Z,99839.94
2023-07-04T13:50:35.584Z,99838.88
2023-07-04T13:55:36.983Z,99834.25
2023-07-04T14:02:30.029Z,99835.44
2023-07-04T14:06:00.474Z,99823.47
2023-07-04T14:11:03.166Z,99834.53
2023-07-04T14:21:14.759Z,99815.06
2023-07-04T14:26:21.422Z,99819.09
2023-07-04T14:31:24.933Z,99801.75
2023-07-04T14:36:26.385Z,99812.19
2023-07-04T14:46:31.952Z,99794.66
2023-07-04T14:51:33.415Z,99793.00
2023-07-04T14:56:45.737Z,99779.94
2023-07-04T15:01:51.695Z,99770.94
2023-07-04T15:06:53.512Z,99776.88
2023-07-04T15:11:54.837Z,99770.63
2023-07-04T15:16:56.473Z,99762.91
2023-07-04T15:21:57.955Z,99765.41
2023-07-04T15:26:59.460Z,99765.50
2023-07-04T15:32:02.696Z,99757.69
2023-07-04T15:37:12.197Z,99752.47
2023-07-04T15:42:13.673Z,99756.72
2023-07-04T15:47:15.044Z,99741.56
2023-07-04T15:52:16.439Z,99739.75
2023-07-04T15:57:17.874Z,99731.78
2023-07-04T16:02:20.091Z,99734.53
2023-07-04T16:07:21.534Z,99707.44
2023-07-04T16:12:23.171Z,99721.19
2023-07-04T16:17:24.924Z,99726.88
2023-07-04T16:22:26.344Z,99693.22
2023-07-04T16:27:27.766Z,99716.78
2023-07-04T16:32:29.216Z,99700.06
2023-07-04T16:37:30.673Z,99694.50
2023-07-04T16:42:32.563Z,99701.03
2023-07-04T16:47:33.974Z,99715.72
2023-07-04T16:52:35.385Z,99718.09
2023-07-04T16:57:36.798Z,99712.16
2023-07-04T17:02:38.221Z,99697.13
2023-07-04T17:07:39.644Z,99712.38
2023-07-04T17:12:41.066Z,99712.53
2023-07-04T17:17:42.554Z,99710.38
2023-07-04T17:22:43.987Z,99695.81
2023-07-04T17:27:45.349Z,99696.88
2023-07-04T17:32:46.798Z,99713.34
2023-07-04T17:37:49.527Z,99701.03
2023-07-04T17:42:52.632Z,99664.81
2023-07-04T17:47:54.272Z,99708.59
2023-07-04T17:52:55.951Z,99693.88
2023-07-04T17:57:57.335Z,99700.53
2023-07-04T18:02:59.034Z,99667.28
2023-07-04T18:08:00.490Z,99657.81
2023-07-04T18:13:01.906Z,99669.53
2023-07-04T18:18:03.751Z,99678.56
2023-07-04T18:23:05.176Z,99669.31
2023-07-04T18:28:06.984Z,99675.59
2023-07-04T18:33:08.379Z,99668.97
2023-07-04T18:38:09.889Z,99659.47
2023-07-04T18:43:11.431Z,99663.41
2023-07-04T18:48:13.355Z,99641.81
2023-07-04T18:53:14.711Z,99653.28
2023-07-04T18:58:16.535Z,99643.94
2023-07-04T19:03:18.143Z,99651.28
2023-07-04T19:08:19.910Z,99637.16
2023-07-04T19:13:21.278Z,99642.13
2023-07-04T19:18:23.350Z,99633.72
2023-07-04T19:23:26.312Z,99649.56
2023-07-04T19:28:27.635Z,99648.41
2023-07-04T19:33:30.464Z,99642.34
2023-07-04T19:38:31.871Z,99638.53
2023-07-04T19:43:33.898Z,99648.13
2023-07-04T19:48:37.710Z,99654.63
2023-07-04T19:53:40.918Z,99655.53
2023-07-04T19:58:42.273Z,99659.19
2023-07-04T20:03:44.043Z,99653.13
2023-07-04T20:08:48.051Z,99648.75
2023-07-04T20:13:49.809Z,99645.63
2023-07-04T20:18:51.269Z,99633.19
2023-07-04T20:23:52.980Z,99625.34
2023-07-04T20:28:54.495Z,99621.88
2023-07-04T20:33:56.571Z,99641.06
2023-07-04T20:38:57.924Z,99633.69
2023-07-04T20:43:59.399Z,99625.22
2023-07-04T20:49:00.762Z,99640.31
2023-07-04T20:54:02.509Z,99651.28
2023-07-04T20:59:04.201Z,99644.97
2023-07-04T21:04:06.223Z,99665.25
2023-07-04T21:09:19.759Z,99660.88
2023-07-04T21:14:21.521Z,99632.75
2023-07-04T21:19:23.023Z,99634.56
2023-07-04T21:24:24.479Z,99638.19
2023-07-04T21:29:27.104Z,99625.03
2023-07-04T21:34:31.260Z,99619.72
2023-07-04T21:39:32.646Z,99636.41
2023-07-04T21:44:34.067Z,99637.22
2023-07-04T21:49:36.456Z,99637.41
2023-07-04T21:54:38.238Z,99622.91
2023-07-04T21:59:39.575Z,99627.47
2023-07-04T22:04:41.053Z,99623.78
2023-07-04T22:09:42.466Z,99628.59
2023-07-04T22:14:44.268Z,99619.97
2023-07-04T22:19:45.706Z,99605.75
2023-07-04T22:24:48.599Z,99590.31
2023-07-04T22:29:50.027Z,99612.47
2023-07-04T22:34:51.383Z,99598.91
2023-07-04T22:39:52.720Z,99598.75
2023-07-04T22:44:54.000Z,99604.00
2023-07-04T22:49:55.339Z,99599.06
2023-07-04T22:54:56.662Z,99605.16
2023-07-04T22:59:58.134Z,99598.94
2023-07-04T23:04:59.538Z,99592.13
2023-07-04T23:10:00.964Z,99587.34
2023-07-04T23:15:02.452Z,99592.81
2023-07-04T23:20:05.753Z,99579.53
2023-07-04T23:25:07.673Z,99571.63
2023-07-04T23:30:09.309Z,99567.91
2023-07-04T23:35:10.727Z,99564.34
2023-07-04T23:40:12.127Z,99563.47
2023-07-04T23:45:13.553Z,99563.69
2023-07-04T23:50:15.238Z,99564.13
2023-07-04T23:55:16.648Z,99562.25
